Time;durP1;ratioP1;P1;durP2;ratioP2;P2;SDS_P1;SDS_P2;PMS_P1;PMS_P2;Temp;Humidity;BMP_temperature;BMP_pressure;BME280_temperature;BME280_humidity;BME280_pressure;Samples;Min_cycle;Max_cycle;Signal;HPM_P1;HPM_P2
2023/05/15 07:23:44;;;;;;;39.63;33.67;;;;;;;-145.79;75.31;77807.59;5258421;28;20411;-73
2023/05/15 07:26:15;;;;;;;40.50;34.97;;;;;;;-145.79;74.79;77786.38;5258243;28;20476;-73
2023/05/15 07:28:46;;;;;;;36.67;32.92;;;;;;;-145.79;73.61;77777.91;5258133;28;20056;-74
2023/05/15 07:31:19;;;;;;;37.30;33.35;;;;;;;-145.79;74.14;77769.44;5254293;28;20065;-73
2023/05/15 07:33:50;;;;;;;39.40;35.30;;;;;;;-145.79;74.51;77767.31;5259952;28;20381;-74
2023/05/15 07:36:22;;;;;;;39.55;35.35;;;;;;;-145.79;75.17;77744.00;5260421;28;20033;-74
2023/05/15 07:38:55;;;;;;;41.92;35.63;;;;;;;-145.79;75.33;77741.88;5261158;28;20025;-74
2023/05/15 07:41:29;;;;;;;40.88;36.92;;;;;;;-145.79;75.07;77714.31;5255697;22;20145;-74
2023/05/15 07:44:00;;;;;;;40.35;36.08;;;;;;;-145.79;72.97;77720.66;5248414;28;20030;-74
2023/05/15 07:46:32;;;;;;;38.40;34.45;;;;;;;-145.79;72.00;77686.75;5239998;28;20385;-76
2023/05/15 07:49:06;;;;;;;38.88;34.90;;;;;;;-145.79;71.65;77697.34;5237972;28;20100;-74
2023/05/15 07:51:43;;;;;;;41.08;36.67;;;;;;;-145.79;71.99;77657.06;5238055;28;20431;-74
2023/05/15 07:54:14;;;;;;;42.10;37.70;;;;;;;-145.79;72.00;77667.69;5238185;28;20056;-74
2023/05/15 07:56:53;;;;;;;43.95;39.58;;;;;;;-145.79;72.43;77688.88;5245140;28;20049;-74
2023/05/15 07:59:24;;;;;;;42.65;38.15;;;;;;;-145.79;72.03;77654.97;5244463;28;20058;-74
2023/05/15 08:01:56;;;;;;;41.97;37.55;;;;;;;-145.79;71.75;77646.47;5244624;28;20053;-74
2023/05/15 08:04:27;;;;;;;40.28;36.28;;;;;;;-145.79;71.08;77635.88;5237634;28;20056;-75
2023/05/15 08:06:58;;;;;;;46.22;41.53;;;;;;;-145.79;71.31;77627.41;5245431;28;20029;-74
2023/05/15 08:09:32;;;;;;;41.42;37.30;;;;;;;-145.79;71.09;77618.91;5244831;28;20025;-75
2023/05/15 08:12:19;;;;;;;44.33;39.92;;;;;;;-145.79;72.21;77604.09;5238101;28;20033;-74
2023/05/15 08:14:55;;;;;;;45.15;40.67;;;;;;;-145.79;71.85;77599.84;5242634;28;20021;-73
2023/05/15 08:17:27;;;;;;;46.15;41.15;;;;;;;-145.79;71.60;77578.66;5248010;28;20460;-74
2023/05/15 08:19:58;;;;;;;44.58;40.03;;;;;;;-145.79;70.76;77599.84;5241629;28;20026;-74
2023/05/15 08:22:30;;;;;;;43.55;39.08;;;;;;;-145.79;70.28;77574.41;5243944;28;20062;-76
2023/05/15 08:25:02;;;;;;;43.35;38.78;;;;;;;-145.79;69.46;77568.03;5244766;28;20026;-74
2023/05/15 08:27:34;;;;;;;41.63;37.22;;;;;;;-145.79;68.93;77544.72;5251431;28;20029;-74
2023/05/15 08:30:06;;;;;;;41.53;37.08;;;;;;;-145.79;67.67;77559.56;5236630;28;20022;-74
2023/05/15 08:32:41;;;;;;;40.90;36.72;;;;;;;-145.79;68.13;77529.88;5244351;28;20376;-74
2023/05/15 08:35:13;;;;;;;40.55;36.40;;;;;;;-145.79;67.44;77517.16;5230869;28;20044;-73
2023/05/15 08:37:45;;;;;;;39.28;35.25;;;;;;;-145.79;66.27;77521.41;5230058;28;20108;-74
2023/05/15 08:40:18;;;;;;;40.75;36.67;;;;;;;-145.79;66.33;77508.69;5222953;28;20481;-74
2023/05/15 08:42:54;;;;;;;40.10;35.90;;;;;;;-145.79;67.42;77487.50;5238269;28;20041;-74
2023/05/15 08:45:25;;;;;;;40.58;36.47;;;;;;;-145.79;67.36;77487.50;5229705;28;20095;-74
2023/05/15 08:47:59;;;;;;;37.13;33.53;;;;;;;-145.79;66.44;77502.34;5228108;28;20045;-74
2023/05/15 08:50:30;;;;;;;39.72;35.70;;;;;;;-145.79;67.17;77519.28;5232402;28;20380;-74
2023/05/15 08:53:02;;;;;;;42.15;37.75;;;;;;;-145.79;68.14;77540.50;5230379;28;20041;-73
2023/05/15 08:55:40;;;;;;;39.60;35.60;;;;;;;-145.79;68.19;77544.72;5230299;28;20104;-73
2023/05/15 08:58:15;;;;;;;38.25;34.33;;;;;;;-145.79;67.90;77515.06;5222738;28;20037;-75
2023/05/15 09:00:48;;;;;;;37.33;33.60;;;;;;;-145.79;66.44;77493.84;5237651;28;20490;-75
2023/05/15 09:03:22;;;;;;;36.28;32.65;;;;;;;-145.79;66.16;77466.31;5234012;28;20056;-75
2023/05/15 09:05:54;;;;;;;36.40;32.63;;;;;;;-145.79;65.81;77457.81;5229981;28;20105;-74
2023/05/15 09:08:28;;;;;;;36.35;32.65;;;;;;;-145.79;65.21;77459.94;5230327;28;20132;-73
2023/05/15 09:11:02;;;;;;;38.63;34.53;;;;;;;-145.79;65.31;77447.22;5221916;28;20382;-73
2023/05/15 09:13:34;;;;;;;38.05;34.10;;;;;;;-145.79;65.40;77432.38;5229967;28;20045;-74
2023/05/15 09:16:06;;;;;;;36.30;32.80;;;;;;;-145.79;65.20;77432.38;5229650;28;20045;-73
2023/05/15 09:18:38;;;;;;;36.72;33.08;;;;;;;-145.79;65.07;77415.44;5229966;28;20059;-73
2023/05/15 09:21:30;;;;;;;36.95;33.08;;;;;;;-145.79;65.33;77394.22;5229675;28;20029;-74
2023/05/15 09:24:23;;;;;;;36.70;33.28;;;;;;;-145.79;64.64;77390.00;5229968;28;20378;-74
2023/05/15 09:27:07;;;;;;;35.90;32.17;;;;;;;-145.79;64.93;77423.91;5229159;28;20022;-74
2023/05/15 09:29:40;;;;;;;33.63;30.33;;;;;;;-145.79;65.57;77423.91;5230558;28;20045;-75
2023/05/15 09:32:13;;;;;;;33.95;30.42;;;;;;;-145.79;65.59;77438.75;5222721;28;20025;-75
2023/05/15 09:34:45;;;;;;;35.30;31.73;;;;;;;-145.79;65.85;77428.16;5223402;28;20034;-74
2023/05/15 09:37:34;;;;;;;34.25;30.85;;;;;;;-145.79;65.68;77413.31;5226784;28;20025;-75
2023/05/15 09:40:08;;;;;;;33.83;30.42;;;;;;;-145.79;65.20;77409.06;5226054;28;20047;-75
2023/05/15 09:42:39;;;;;;;34.28;30.65;;;;;;;-145.79;64.98;77398.47;5225303;28;20038;-74
2023/05/15 09:45:17;;;;;;;33.40;29.85;;;;;;;-145.79;65.03;77404.84;5231875;28;20024;-74
2023/05/15 09:47:49;;;;;;;31.98;28.73;;;;;;;-145.79;64.48;77419.66;5225737;28;20465;-74
2023/05/15 09:50:23;;;;;;;30.67;27.63;;;;;;;-145.79;65.22;77409.06;5229171;28;20053;-74
2023/05/15 09:52:57;;;;;;;33.67;30.15;;;;;;;-145.79;65.39;77426.03;5229960;28;20017;-72
2023/05/15 09:55:33;;;;;;;34.43;30.90;;;;;;;-145.79;65.66;77409.06;5220495;28;20029;-74
2023/05/15 09:58:10;;;;;;;32.42;29.02;;;;;;;-145.79;65.52;77413.31;5229434;28;20081;-74
2023/05/15 10:00:43;;;;;;;31.90;28.55;;;;;;;-145.79;65.82;77402.72;5233057;28;20037;-74
2023/05/15 10:03:18;;;;;;;30.95;27.83;;;;;;;-145.79;65.47;77400.59;5222504;28;20065;-73
2023/05/15 10:05:57;;;;;;;31.30;28.08;;;;;;;-145.79;65.10;77402.72;5232710;28;20033;-74
2023/05/15 10:08:29;;;;;;;32.63;29.27;;;;;;;-145.79;64.93;77398.47;5228417;28;20421;-74
2023/05/15 10:11:00;;;;;;;30.55;27.33;;;;;;;-145.79;65.25;77387.88;5227872;28;20037;-74
2023/05/15 10:13:33;;;;;;;31.73;28.52;;;;;;;-145.79;65.13;77394.22;5228553;28;20404;-75
2023/05/15 10:16:05;;;;;;;31.60;27.95;;;;;;;-145.79;65.17;77423.91;5228473;28;20030;-74
2023/05/15 10:18:39;;;;;;;31.13;28.00;;;;;;;-145.79;65.65;77402.72;5225395;28;20025;-73
2023/05/15 10:21:15;;;;;;;30.40;27.42;;;;;;;-145.79;65.53;77404.84;5230289;28;20021;-72
2023/05/15 10:23:49;;;;;;;30.20;27.27;;;;;;;-145.79;65.48;77402.72;5227289;28;20021;-73
2023/05/15 10:26:32;;;;;;;28.83;25.60;;;;;;;-145.79;65.37;77400.59;5204992;28;20064;-73
2023/05/15 10:29:16;;;;;;;28.13;25.23;;;;;;;-145.79;65.43;77411.19;5223097;28;20038;-72
2023/05/15 10:31:49;;;;;;;28.63;25.77;;;;;;;-145.79;65.68;77404.84;5228451;28;20030;-74
2023/05/15 10:34:20;;;;;;;27.95;25.13;;;;;;;-145.79;66.79;77430.25;5228798;28;20080;-73
2023/05/15 10:36:53;;;;;;;28.67;25.90;;;;;;;-145.79;66.85;77419.66;5226808;28;20025;-73
2023/05/15 10:39:26;;;;;;;27.35;24.70;;;;;;;-145.79;67.07;77432.38;5223195;28;20030;-74
2023/05/15 10:41:58;;;;;;;29.00;26.27;;;;;;;-145.79;67.27;77434.50;5232282;28;20043;-73
2023/05/15 10:44:31;;;;;;;32.60;28.23;;;;;;;-145.79;67.82;77468.41;5227541;28;20042;-73
2023/05/15 10:47:05;;;;;;;29.38;26.45;;;;;;;-145.79;68.47;77474.78;5228466;28;20088;-73
2023/05/15 10:49:38;;;;;;;30.00;27.02;;;;;;;-145.79;68.98;77459.94;5228251;28;20042;-72
2023/05/15 10:52:11;;;;;;;29.45;26.38;;;;;;;-145.79;68.61;77464.19;5227984;28;20461;-72
2023/05/15 10:54:45;;;;;;;30.30;27.27;;;;;;;-145.79;68.54;77455.69;5228628;28;20158;-71
2023/05/15 10:57:16;;;;;;;29.48;26.60;;;;;;;-145.79;68.36;77447.22;5228096;28;20065;-73
2023/05/15 10:59:49;;;;;;;27.92;25.13;;;;;;;-145.79;67.73;77436.63;5233327;28;20033;-71
2023/05/15 11:02:25;;;;;;;31.88;28.65;;;;;;;-145.79;67.01;77440.88;5233277;28;20049;-72
2023/05/15 11:04:58;;;;;;;27.77;25.17;;;;;;;-145.79;67.34;77432.38;5221363;28;20029;-73
2023/05/15 11:07:29;;;;;;;29.02;26.02;;;;;;;-145.79;67.69;77451.47;5229635;28;20033;-73
2023/05/15 11:10:26;;;;;;;29.65;26.77;;;;;;;-145.79;68.63;77451.47;5238276;28;20034;-73
2023/05/15 11:13:00;;;;;;;31.20;28.00;;;;;;;-145.79;68.84;77470.53;5225597;28;20057;-73
2023/05/15 11:15:42;;;;;;;32.08;28.85;;;;;;;-145.79;69.62;77474.78;5231182;28;20059;-73
2023/05/15 11:18:14;;;;;;;32.03;29.02;;;;;;;-145.79;69.52;77474.78;5227054;28;20037;-73
2023/05/15 11:20:52;;;;;;;32.28;29.13;;;;;;;-145.79;69.40;77464.19;5229193;28;20457;-72
2023/05/15 11:23:24;;;;;;;33.25;30.13;;;;;;;-145.79;69.66;77466.31;5227714;28;20472;-72
2023/05/15 11:25:56;;;;;;;33.70;30.48;;;;;;;-145.79;69.42;77457.81;5222668;28;20075;-72
2023/05/15 11:28:27;;;;;;;34.22;30.80;;;;;;;-145.79;69.73;77445.09;5223976;28;20042;-73
2023/05/15 11:31:04;;;;;;;34.60;31.00;;;;;;;-145.79;69.34;77436.63;5226430;28;20496;-73
2023/05/15 11:33:37;;;;;;;34.97;31.48;;;;;;;-145.79;69.39;77442.97;5227366;28;20038;-73
2023/05/15 11:36:10;;;;;;;34.65;30.95;;;;;;;-145.79;69.27;77445.09;5224904;28;20129;-74
2023/05/15 11:38:42;;;;;;;36.28;32.67;;;;;;;-145.79;69.69;77436.63;5220357;28;20037;-74
2023/05/15 11:41:23;;;;;;;46.05;41.47;;;;;;;-145.79;71.10;77415.44;5227673;28;20050;-75
2023/05/15 11:43:56;;;;;;;38.00;34.40;;;;;;;-145.79;70.09;77447.22;5230424;28;20025;-75
2023/05/15 11:46:28;;;;;;;34.50;31.10;;;;;;;-145.79;70.46;77442.97;5232178;28;20041;-74
2023/05/15 11:49:00;;;;;;;32.45;29.35;;;;;;;-145.79;71.47;77436.63;5224417;28;20018;-75
2023/05/15 11:51:32;;;;;;;29.95;27.05;;;;;;;-145.79;72.11;77423.91;5220420;28;20549;-75
2023/05/15 11:54:04;;;;;;;32.15;29.02;;;;;;;-145.79;70.97;77426.03;5219449;28;20432;-74
2023/05/15 11:56:42;;;;;;;33.55;30.25;;;;;;;-145.79;70.30;77432.38;5227988;28;20083;-75
2023/05/15 11:59:16;;;;;;;33.05;29.75;;;;;;;-145.79;70.38;77432.38;5220686;28;20026;-76
2023/05/15 12:01:47;;;;;;;36.03;32.42;;;;;;;-145.79;71.11;77445.09;5213692;28;20045;-76
2023/05/15 12:04:19;;;;;;;39.03;34.95;;;;;;;-145.79;71.58;77447.22;5219726;28;20030;-75
2023/05/15 12:06:50;;;;;;;38.83;34.90;;;;;;;-145.79;71.73;77474.78;5217499;28;20045;-75
2023/05/15 12:09:26;;;;;;;42.72;38.45;;;;;;;-145.79;72.66;77466.31;5218162;28;20037;-75
2023/05/15 12:11:57;;;;;;;41.33;36.95;;;;;;;-145.79;72.91;77479.03;5230822;28;20088;-74
2023/05/15 12:14:30;;;;;;;42.17;38.03;;;;;;;-145.79;73.30;77479.03;5227596;28;20033;-74
2023/05/15 12:17:03;;;;;;;47.08;42.28;;;;;;;-145.79;74.33;77489.63;5229762;28;20034;-71
2023/05/15 12:19:36;;;;;;;47.35;42.50;;;;;;;-145.79;75.16;77506.56;5221475;28;20068;-73
2023/05/15 12:22:08;;;;;;;46.60;42.00;;;;;;;-145.79;75.17;77485.38;5224268;28;20025;-76
2023/05/15 12:24:40;;;;;;;49.53;44.58;;;;;;;-145.79;75.17;77506.56;5226386;28;20022;-78
2023/05/15 12:27:12;;;;;;;49.33;44.20;;;;;;;-145.79;75.37;77493.84;5229449;28;20107;-76
2023/05/15 12:29:43;;;;;;;48.53;43.55;;;;;;;-145.79;75.67;77504.47;5227051;28;20473;-74
2023/05/15 12:32:15;;;;;;;49.40;42.63;;;;;;;-145.79;76.36;77515.06;5221909;28;20018;-73
2023/05/15 12:34:47;;;;;;;45.38;40.67;;;;;;;-145.79;75.78;77491.75;5229391;28;20467;-74
2023/05/15 12:37:21;;;;;;;49.38;44.17;;;;;;;-145.79;75.89;77479.03;5229392;28;20104;-73
2023/05/15 12:39:55;;;;;;;49.33;42.67;;;;;;;-145.79;75.58;77500.22;5229285;28;20030;-72
2023/05/15 12:42:27;;;;;;;52.42;43.50;;;;;;;-145.79;76.06;77500.22;5218232;28;20041;-74
2023/05/15 12:44:58;;;;;;;47.08;41.03;;;;;;;-145.79;76.45;77495.97;5223547;28;20033;-76
2023/05/15 12:47:29;;;;;;;48.33;42.92;;;;;;;-145.79;76.60;77491.75;5221204;28;20835;-74
2023/05/15 12:50:01;;;;;;;48.60;43.25;;;;;;;-145.79;76.60;77479.03;5222397;28;20466;-74
2023/05/15 12:52:32;;;;;;;49.08;42.53;;;;;;;-145.79;75.78;77481.13;5225144;28;20037;-73
2023/05/15 12:55:04;;;;;;;44.10;39.30;;;;;;;-145.79;75.78;77466.31;5228424;28;20026;-74
2023/05/15 12:57:35;;;;;;;49.60;42.22;;;;;;;-145.79;75.78;77462.06;5225578;28;20090;-73
2023/05/15 13:00:10;;;;;;;47.28;42.15;;;;;;;-145.79;75.41;77445.09;5224693;28;20030;-71
2023/05/15 13:02:49;;;;;;;42.97;38.38;;;;;;;-145.79;74.95;77430.25;5229945;28;20025;-72
2023/05/15 13:05:30;;;;;;;44.38;39.55;;;;;;;-145.79;74.52;77400.59;5221879;28;20026;-71
2023/05/15 13:08:03;;;;;;;45.70;40.45;;;;;;;-145.79;74.37;77398.47;5221823;28;20026;-71
2023/05/15 13:10:36;;;;;;;49.13;40.92;;;;;;;-145.79;74.19;77400.59;5221838;28;20053;-74
2023/05/15 13:13:08;;;;;;;69.82;62.45;;;;;;;-145.79;74.31;77383.63;5229379;28;20025;-73
2023/05/15 13:15:42;;;;;;;66.30;59.30;;;;;;;-145.79;73.38;77411.19;5222830;28;20516;-72
2023/05/15 13:18:15;;;;;;;53.30;47.57;;;;;;;-145.79;74.12;77409.06;5220517;28;20030;-71
2023/05/15 13:20:50;;;;;;;41.88;37.42;;;;;;;-145.79;73.99;77396.34;5222471;28;20029;-75
2023/05/15 13:23:28;;;;;;;43.75;38.63;;;;;;;-145.79;73.53;77377.28;5236317;28;20040;-73
2023/05/15 13:25:59;;;;;;;42.95;38.33;;;;;;;-145.79;73.26;77383.63;5221199;28;20103;-72
2023/05/15 13:28:33;;;;;;;42.83;38.00;;;;;;;-145.79;73.25;77377.28;5220992;28;20037;-71
2023/05/15 13:31:05;;;;;;;43.63;37.58;;;;;;;-145.79;73.31;77394.22;5228782;28;20033;-74
2023/05/15 13:33:36;;;;;;;40.63;34.42;;;;;;;-145.79;72.88;77383.63;5228927;28;20022;-74
2023/05/15 13:36:08;;;;;;;39.25;34.40;;;;;;;-145.79;72.58;77385.75;5230179;28;20469;-73
2023/05/15 13:38:39;;;;;;;36.42;32.53;;;;;;;-145.79;73.36;77423.91;5233678;28;20064;-71
2023/05/15 13:41:13;;;;;;;36.72;32.90;;;;;;;-145.79;73.49;77413.31;5224679;28;20046;-74
2023/05/15 13:43:46;;;;;;;43.45;33.22;;;;;;;-145.79;73.75;77411.19;5229364;28;20060;-74
2023/05/15 13:46:18;;;;;;;36.60;31.75;;;;;;;-145.79;73.63;77398.47;5229509;28;20095;-75
2023/05/15 13:48:49;;;;;;;35.60;31.75;;;;;;;-145.79;73.54;77394.22;5233897;28;20029;-74
2023/05/15 13:51:20;;;;;;;34.13;30.52;;;;;;;-145.79;73.38;77404.84;5230724;28;20037;-74
2023/05/15 13:53:52;;;;;;;33.13;29.20;;;;;;;-145.79;73.63;77390.00;5229249;28;20076;-73
2023/05/15 13:56:23;;;;;;;32.38;28.30;;;;;;;-145.79;73.85;77385.75;5222021;28;20502;-75
2023/05/15 13:58:54;;;;;;;32.10;27.35;;;;;;;-145.79;73.33;77385.75;5228565;28;20113;-74
2023/05/15 14:01:26;;;;;;;30.95;26.90;;;;;;;-145.79;73.01;77394.22;5227617;28;20034;-75
2023/05/15 14:04:00;;;;;;;29.00;24.60;;;;;;;-145.79;72.56;77400.59;5233564;28;20029;-76
2023/05/15 14:06:31;;;;;;;217.00;195.68;;;;;;;-145.79;71.71;77413.31;5230564;28;20053;-75
2023/05/15 14:09:03;;;;;;;27.02;24.23;;;;;;;-145.79;72.14;77409.06;5233253;28;20076;-75
2023/05/15 14:11:34;;;;;;;24.25;21.92;;;;;;;-145.79;72.29;77402.72;5222868;28;20088;-73
2023/05/15 14:14:06;;;;;;;23.90;21.30;;;;;;;-145.79;72.31;77413.31;5228828;28;20487;-74
2023/05/15 14:16:37;;;;;;;22.88;20.48;;;;;;;-145.79;72.61;77415.44;5231732;28;20061;-77
2023/05/15 14:19:08;;;;;;;19.00;17.10;;;;;;;-145.79;72.45;77411.19;5226325;28;20490;-74
2023/05/15 14:21:39;;;;;;;16.05;14.40;;;;;;;-145.79;72.35;77411.19;5231636;28;20037;-75
2023/05/15 14:24:11;;;;;;;16.08;14.48;;;;;;;-145.79;72.36;77413.31;5225118;28;20034;-75
2023/05/15 14:26:45;;;;;;;12.85;11.05;;;;;;;-145.79;72.33;77411.19;5232689;28;20476;-75
2023/05/15 14:29:16;;;;;;;12.15;10.95;;;;;;;-145.79;72.36;77411.19;5238912;28;20041;-75
2023/05/15 14:31:48;;;;;;;14.07;12.05;;;;;;;-145.79;72.72;77406.94;5225020;28;20088;-76
2023/05/15 14:34:21;;;;;;;10.43;9.40;;;;;;;-145.79;72.28;77417.53;5225304;28;20026;-75
2023/05/15 14:36:52;;;;;;;15.70;13.80;;;;;;;-145.79;72.27;77409.06;5220411;28;20022;-75
2023/05/15 14:39:23;;;;;;;11.57;9.50;;;;;;;-145.79;72.08;77406.94;5219496;28;20021;-75
2023/05/15 14:41:58;;;;;;;9.77;8.85;;;;;;;-145.79;71.92;77398.47;5225921;28;20047;-77
2023/05/15 14:44:29;;;;;;;10.45;9.00;;;;;;;-145.79;71.27;77390.00;5229450;28;20030;-77
2023/05/15 14:47:07;;;;;;;12.18;8.80;;;;;;;-145.79;72.22;77394.22;5226539;28;20120;-77
2023/05/15 14:49:39;;;;;;;9.50;7.32;;;;;;;-145.79;70.79;77415.44;5230403;28;20087;-75
2023/05/15 14:52:11;;;;;;;12.50;7.82;;;;;;;-145.79;70.46;77415.44;5221920;28;20026;-75
2023/05/15 14:54:42;;;;;;;9.10;6.03;;;;;;;-145.79;70.65;77426.03;5228700;28;20034;-76
2023/05/15 14:57:19;;;;;;;10.18;6.55;;;;;;;-145.79;70.72;77417.53;5220983;28;20105;-76
2023/05/15 14:59:50;;;;;;;10.82;6.60;;;;;;;-145.79;70.16;77413.31;5231360;28;20438;-77
2023/05/15 15:02:21;;;;;;;7.78;6.82;;;;;;;-145.79;70.55;77398.47;5227806;28;20045;-77
2023/05/15 15:04:52;;;;;;;9.70;6.53;;;;;;;-145.79;70.28;77404.84;5227207;28;20553;-78
2023/05/15 15:07:29;;;;;;;11.30;6.32;;;;;;;-145.79;70.10;77394.22;5228725;28;20025;-77
2023/05/15 15:10:00;;;;;;;12.75;6.50;;;;;;;-145.79;68.75;77398.47;5227759;28;20477;-76
2023/05/15 15:12:32;;;;;;;12.77;6.38;;;;;;;-145.79;68.95;77438.75;5227628;28;20100;-76
2023/05/15 15:15:05;;;;;;;7.72;5.85;;;;;;;-145.79;69.22;77423.91;5227471;28;20441;-77
2023/05/15 15:17:36;;;;;;;10.05;6.30;;;;;;;-145.79;69.35;77445.09;5220001;28;20034;-77
2023/05/15 15:20:08;;;;;;;8.23;5.88;;;;;;;-145.79;69.15;77459.94;5220411;28;20026;-75
2023/05/15 15:22:39;;;;;;;8.93;5.80;;;;;;;-145.79;69.10;77462.06;5227777;28;20038;-77
2023/05/15 15:25:11;;;;;;;10.15;7.00;;;;;;;-145.79;68.74;77457.81;5224697;28;20106;-75
2023/05/15 15:27:45;;;;;;;11.77;7.32;;;;;;;-145.79;69.20;77466.31;5231771;28;20037;-74
2023/05/15 15:30:16;;;;;;;12.73;9.02;;;;;;;-145.79;69.77;77455.69;5227390;28;20033;-75
2023/05/15 15:32:47;;;;;;;10.52;5.22;;;;;;;-145.79;69.85;77451.47;5223509;28;20025;-76
2023/05/15 15:35:19;;;;;;;12.82;5.85;;;;;;;-145.79;69.93;77464.19;5227515;28;20037;-74
2023/05/15 15:37:51;;;;;;;12.40;5.47;;;;;;;-145.79;69.69;77468.41;5221884;28;20112;-74
2023/05/15 15:40:23;;;;;;;8.98;5.00;;;;;;;-145.79;69.86;77479.03;5231544;28;20528;-73
2023/05/15 15:42:54;;;;;;;8.65;5.80;;;;;;;-145.79;69.46;77525.66;5220585;28;20034;-73
2023/05/15 15:45:25;;;;;;;11.38;5.43;;;;;;;-145.79;69.60;77525.66;5224022;28;20432;-75
2023/05/15 15:47:57;;;;;;;10.63;5.05;;;;;;;-145.79;69.80;77534.13;5228997;28;20022;-74
2023/05/15 15:50:28;;;;;;;7.68;5.45;;;;;;;-145.79;71.00;77523.53;5231354;28;20392;-74
2023/05/15 15:52:59;;;;;;;9.55;4.97;;;;;;;-145.79;69.88;77521.41;5216628;28;20113;-76
2023/05/15 15:55:33;;;;;;;7.45;4.45;;;;;;;-145.79;70.28;77512.94;5224540;28;20165;-73
2023/05/15 15:58:05;;;;;;;10.50;5.47;;;;;;;-145.79;69.68;77519.28;5231322;28;20042;-77
2023/05/15 16:00:36;;;;;;;9.52;4.75;;;;;;;-145.79;70.43;77508.69;5230693;28;20026;-74
2023/05/15 16:03:08;;;;;;;10.95;5.85;;;;;;;-145.79;69.93;77508.69;5226540;28;20468;-73
2023/05/15 16:05:39;;;;;;;7.95;4.55;;;;;;;-145.79;69.31;77517.16;5230965;28;20384;-74
2023/05/15 16:08:10;;;;;;;10.65;5.55;;;;;;;-145.79;69.30;77525.66;5231076;28;20022;-74
2023/05/15 16:10:43;;;;;;;7.70;4.00;;;;;;;-145.79;68.04;77544.72;5231636;28;20112;-75
2023/05/15 16:13:14;;;;;;;7.45;4.03;;;;;;;-145.79;68.24;77551.09;5224365;28;20022;-74
2023/05/15 16:15:46;;;;;;;6.25;3.53;;;;;;;-145.79;68.75;77576.53;5230664;28;20362;-75
2023/05/15 16:18:18;;;;;;;7.03;3.85;;;;;;;-145.79;69.32;77551.09;5223115;28;20026;-76
2023/05/15 16:20:50;;;;;;;6.30;4.07;;;;;;;-145.79;69.65;77538.38;5230678;28;20041;-74
2023/05/15 16:23:21;;;;;;;6.75;3.53;;;;;;;-145.79;68.36;77572.28;5231508;28;20042;-77
2023/05/15 16:25:53;;;;;;;10.13;4.70;;;;;;;-145.79;68.98;77559.56;5217298;28;20034;-76
2023/05/15 16:28:24;;;;;;;7.55;3.10;;;;;;;-145.79;68.12;77568.03;5223122;28;20065;-77
2023/05/15 16:30:57;;;;;;;5.80;4.03;;;;;;;-145.79;68.99;77580.75;5223984;28;20034;-76
2023/05/15 16:33:38;;;;;;;7.78;3.53;;;;;;;-145.79;68.73;77593.47;5223743;28;20128;-78
2023/05/15 16:36:11;;;;;;;9.20;4.57;;;;;;;-145.79;69.34;77614.69;5303420;23;20037;-78
2023/05/15 16:38:45;;;;;;;5.05;4.00;;;;;;;-145.79;69.17;77606.19;5264049;28;20493;-77
2023/05/15 16:41:20;;;;;;;5.40;3.20;;;;;;;-145.79;69.15;77627.41;5264131;28;20487;-77
2023/05/15 16:43:51;;;;;;;3.23;2.70;;;;;;;-145.79;69.84;77621.03;5263762;28;20025;-76
2023/05/15 16:46:23;;;;;;;5.45;3.58;;;;;;;-145.79;69.77;77625.28;5311618;22;20053;-76
2023/05/15 16:48:55;;;;;;;8.55;3.80;;;;;;;-145.79;70.30;77648.59;5242694;28;20049;-76
2023/05/15 16:51:36;;;;;;;5.00;3.42;;;;;;;-145.79;70.63;77638.00;5247065;22;20073;-76
2023/05/15 16:54:29;;;;;;;7.05;3.53;;;;;;;-145.79;70.29;77652.84;5232072;28;20038;-76
